sensor_id;sensor_type;location;lat;lon;timestamp;pressure;altitude;pressure_sealevel;temperature;humidity
70314;BME280;71040;47.526;18.986;2024-01-06T00:04:11;98891.69;;;8.34;83.22
70314;BME280;71040;47.526;18.986;2024-01-06T00:09:14;98888.16;;;8.35;83.20
70314;BME280;71040;47.526;18.986;2024-01-06T00:14:19;98877.06;;;8.31;83.21
70314;BME280;71040;47.526;18.986;2024-01-06T00:19:24;98874.38;;;8.33;83.03
70314;BME280;71040;47.526;18.986;2024-01-06T00:24:29;98863.13;;;8.32;83.18
70314;BME280;71040;47.526;18.986;2024-01-06T00:29:29;98865.72;;;8.32;83.05
70314;BME280;71040;47.526;18.986;2024-01-06T00:34:30;98870.09;;;8.32;83.23
70314;BME280;71040;47.526;18.986;2024-01-06T00:39:32;98865.75;;;8.31;83.25
70314;BME280;71040;47.526;18.986;2024-01-06T00:44:35;98864.09;;;8.30;82.98
70314;BME280;71040;47.526;18.986;2024-01-06T00:49:36;98858.91;;;8.30;83.27
70314;BME280;71040;47.526;18.986;2024-01-06T00:54:36;98861.44;;;8.31;83.19
70314;BME280;71040;47.526;18.986;2024-01-06T00:59:36;98854.53;;;8.30;83.18
70314;BME280;71040;47.526;18.986;2024-01-06T01:04:37;98855.34;;;8.31;83.12
70314;BME280;71040;47.526;18.986;2024-01-06T01:09:39;98864.94;;;8.30;83.15
70314;BME280;71040;47.526;18.986;2024-01-06T01:14:43;98862.41;;;8.29;83.28
70314;BME280;71040;47.526;18.986;2024-01-06T01:19:46;98848.47;;;8.30;83.06
70314;BME280;71040;47.526;18.986;2024-01-06T01:24:49;98849.41;;;8.29;83.11
70314;BME280;71040;47.526;18.986;2024-01-06T01:29:51;98857.22;;;8.29;83.13
70314;BME280;71040;47.526;18.986;2024-01-06T01:34:55;98837.28;;;8.28;83.27
70314;BME280;71040;47.526;18.986;2024-01-06T01:39:57;98839.06;;;8.27;82.88
70314;BME280;71040;47.526;18.986;2024-01-06T01:45:00;98834.69;;;8.28;83.11
70314;BME280;71040;47.526;18.986;2024-01-06T01:50:00;98830.41;;;8.27;83.06
70314;BME280;71040;47.526;18.986;2024-01-06T01:55:04;98814.78;;;8.27;83.22
70314;BME280;71040;47.526;18.986;2024-01-06T02:00:08;98813.16;;;8.24;83.13
70314;BME280;71040;47.526;18.986;2024-01-06T02:05:17;98806.97;;;8.27;83.04
70314;BME280;71040;47.526;18.986;2024-01-06T02:10:23;98813.94;;;8.26;82.99
70314;BME280;71040;47.526;18.986;2024-01-06T02:15:26;98797.47;;;8.26;83.17
70314;BME280;71040;47.526;18.986;2024-01-06T02:20:30;98805.28;;;8.26;83.14
70314;BME280;71040;47.526;18.986;2024-01-06T02:25:31;98802.75;;;8.24;83.31
70314;BME280;71040;47.526;18.986;2024-01-06T02:30:31;98794.94;;;8.24;83.14
70314;BME280;71040;47.526;18.986;2024-01-06T02:35:32;98789.81;;;8.23;83.20
70314;BME280;71040;47.526;18.986;2024-01-06T02:40:32;98785.44;;;8.23;83.51
70314;BME280;71040;47.526;18.986;2024-01-06T02:45:35;98778.53;;;8.22;83.17
70314;BME280;71040;47.526;18.986;2024-01-06T02:50:40;98776.78;;;8.23;83.38
70314;BME280;71040;47.526;18.986;2024-01-06T02:55:41;98768.13;;;8.22;83.37
70314;BME280;71040;47.526;18.986;2024-01-06T03:00:50;98757.72;;;8.22;83.15
70314;BME280;71040;47.526;18.986;2024-01-06T03:05:51;98759.47;;;8.22;83.38
70314;BME280;71040;47.526;18.986;2024-01-06T03:10:51;98753.41;;;8.21;83.24
70314;BME280;71040;47.526;18.986;2024-01-06T03:15:52;98740.47;;;8.20;83.24
70314;BME280;71040;47.526;18.986;2024-01-06T03:20:54;98731.75;;;8.21;83.14
70314;BME280;71040;47.526;18.986;2024-01-06T03:25:55;98729.22;;;8.19;83.34
70314;BME280;71040;47.526;18.986;2024-01-06T03:30:57;98736.13;;;8.20;83.48
70314;BME280;71040;47.526;18.986;2024-01-06T03:35:58;98743.94;;;8.20;83.27
70314;BME280;71040;47.526;18.986;2024-01-06T03:41:00;98732.66;;;8.20;83.45
70314;BME280;71040;47.526;18.986;2024-01-06T03:46:04;98736.28;;;8.17;83.19
70314;BME280;71040;47.526;18.986;2024-01-06T03:51:09;98738.81;;;8.19;83.47
70314;BME280;71040;47.526;18.986;2024-01-06T03:56:12;98746.63;;;8.19;83.58
70314;BME280;71040;47.526;18.986;2024-01-06T04:01:13;98752.00;;;8.16;83.56
70314;BME280;71040;47.526;18.986;2024-01-06T04:06:13;98765.84;;;8.16;83.39
70314;BME280;71040;47.526;18.986;2024-01-06T04:11:25;98767.47;;;8.19;83.43
70314;BME280;71040;47.526;18.986;2024-01-06T04:16:28;98758.88;;;8.17;83.44
70314;BME280;71040;47.526;18.986;2024-01-06T04:21:28;98758.88;;;8.17;83.49
70314;BME280;71040;47.526;18.986;2024-01-06T04:26:29;98765.84;;;8.16;83.84
70314;BME280;71040;47.526;18.986;2024-01-06T04:31:31;98782.31;;;8.17;83.87
70314;BME280;71040;47.526;18.986;2024-01-06T04:36:32;98778.88;;;8.16;83.78
70314;BME280;71040;47.526;18.986;2024-01-06T04:41:40;98769.28;;;8.17;84.03
70314;BME280;71040;47.526;18.986;2024-01-06T04:46:41;98756.34;;;8.15;84.05
70314;BME280;71040;47.526;18.986;2024-01-06T04:51:41;98757.19;;;8.16;83.97
70314;BME280;71040;47.526;18.986;2024-01-06T04:56:41;98741.94;;;8.08;83.80
70314;BME280;71040;47.526;18.986;2024-01-06T05:01:44;98741.78;;;8.11;83.98
70314;BME280;71040;47.526;18.986;2024-01-06T05:06:47;98737.28;;;8.15;84.08
70314;BME280;71040;47.526;18.986;2024-01-06T05:11:50;98738.19;;;8.14;84.13
70314;BME280;71040;47.526;18.986;2024-01-06T05:16:50;98730.38;;;8.14;83.95
70314;BME280;71040;47.526;18.986;2024-01-06T05:21:53;98737.28;;;8.15;84.08
70314;BME280;71040;47.526;18.986;2024-01-06T05:26:53;98732.06;;;8.15;83.96
70314;BME280;71040;47.526;18.986;2024-01-06T05:31:56;98739.03;;;8.14;83.72
70314;BME280;71040;47.526;18.986;2024-01-06T05:36:56;98743.41;;;8.14;84.01
70314;BME280;71040;47.526;18.986;2024-01-06T05:41:57;98745.31;;;8.10;84.12
70314;BME280;71040;47.526;18.986;2024-01-06T05:47:00;98758.25;;;8.12;84.14
70314;BME280;71040;47.526;18.986;2024-01-06T05:52:02;98759.09;;;8.12;84.17
70314;BME280;71040;47.526;18.986;2024-01-06T05:57:05;98770.34;;;8.13;84.43
70314;BME280;71040;47.526;18.986;2024-01-06T06:02:06;98765.22;;;8.11;84.03
70314;BME280;71040;47.526;18.986;2024-01-06T06:07:08;98759.31;;;8.08;84.28
70314;BME280;71040;47.526;18.986;2024-01-06T06:12:13;98755.72;;;8.10;84.24
70314;BME280;71040;47.526;18.986;2024-01-06T06:17:16;98761.69;;;8.12;84.29
70314;BME280;71040;47.526;18.986;2024-01-06T06:22:18;98760.84;;;8.12;84.22
70314;BME280;71040;47.526;18.986;2024-01-06T06:27:22;98763.59;;;8.09;84.35
70314;BME280;71040;47.526;18.986;2024-01-06T06:32:25;98761.78;;;8.11;84.31
70314;BME280;71040;47.526;18.986;2024-01-06T06:37:30;98767.81;;;8.11;84.22
70314;BME280;71040;47.526;18.986;2024-01-06T06:42:30;98766.97;;;8.11;84.38
70314;BME280;71040;47.526;18.986;2024-01-06T06:47:30;98761.00;;;8.09;84.55
70314;BME280;71040;47.526;18.986;2024-01-06T06:52:33;98754.88;;;8.10;84.21
70314;BME280;71040;47.526;18.986;2024-01-06T06:57:33;98766.97;;;8.11;84.39
70314;BME280;71040;47.526;18.986;2024-01-06T07:02:34;98766.13;;;8.10;84.35
70314;BME280;71040;47.526;18.986;2024-01-06T07:07:40;98763.53;;;8.10;84.54
70314;BME280;71040;47.526;18.986;2024-01-06T07:12:40;98758.41;;;8.09;84.56
70314;BME280;71040;47.526;18.986;2024-01-06T07:17:41;98765.28;;;8.10;84.31
70314;BME280;71040;47.526;18.986;2024-01-06T07:22:41;98764.38;;;8.11;84.53
70314;BME280;71040;47.526;18.986;2024-01-06T07:27:46;98757.47;;;8.10;84.36
70314;BME280;71040;47.526;18.986;2024-01-06T07:32:46;98759.31;;;8.08;84.81
70314;BME280;71040;47.526;18.986;2024-01-06T07:37:47;98768.81;;;8.09;84.61
70314;BME280;71040;47.526;18.986;2024-01-06T07:42:48;98761.00;;;8.09;84.72
70314;BME280;71040;47.526;18.986;2024-01-06T07:47:50;98754.97;;;8.08;84.63
70314;BME280;71040;47.526;18.986;2024-01-06T07:52:51;98751.69;;;8.05;84.62
70314;BME280;71040;47.526;18.986;2024-01-06T07:57:54;98747.16;;;8.08;84.62
70314;BME280;71040;47.526;18.986;2024-01-06T08:02:56;98747.16;;;8.08;84.71
70314;BME280;71040;47.526;18.986;2024-01-06T08:07:58;98748.91;;;8.08;84.69
70314;BME280;71040;47.526;18.986;2024-01-06T08:12:58;98753.31;;;8.07;84.63
70314;BME280;71040;47.526;18.986;2024-01-06T08:17:59;98756.72;;;8.08;84.95
70314;BME280;71040;47.526;18.986;2024-01-06T08:23:02;98750.78;;;8.06;89.38
70314;BME280;71040;47.526;18.986;2024-01-06T08:28:07;98761.91;;;8.08;89.71
70314;BME280;71040;47.526;18.986;2024-01-06T08:33:07;98763.78;;;8.06;89.76
70314;BME280;71040;47.526;18.986;2024-01-06T08:38:10;98760.34;;;8.05;89.58
70314;BME280;71040;47.526;18.986;2024-01-06T08:43:10;98757.66;;;8.07;89.74
70314;BME280;71040;47.526;18.986;2024-01-06T08:48:11;98763.72;;;8.07;89.73
70314;BME280;71040;47.526;18.986;2024-01-06T08:53:13;98766.31;;;8.07;89.73
70314;BME280;71040;47.526;18.986;2024-01-06T08:58:14;98768.91;;;8.07;89.85
70314;BME280;71040;47.526;18.986;2024-01-06T09:03:14;98776.03;;;8.04;89.99
70314;BME280;71040;47.526;18.986;2024-01-06T09:08:14;98785.44;;;8.06;89.66
70314;BME280;71040;47.526;18.986;2024-01-06T09:13:15;98781.94;;;8.07;89.84
70314;BME280;71040;47.526;18.986;2024-01-06T09:18:15;98765.47;;;8.07;90.03
70314;BME280;71040;47.526;18.986;2024-01-06T09:23:22;98767.22;;;8.06;89.85
70314;BME280;71040;47.526;18.986;2024-01-06T09:28:27;98752.47;;;8.07;89.90
70314;BME280;71040;47.526;18.986;2024-01-06T09:33:33;98754.13;;;8.08;90.02
70314;BME280;71040;47.526;18.986;2024-01-06T09:38:34;98749.84;;;8.07;89.99
70314;BME280;71040;47.526;18.986;2024-01-06T09:43:34;98749.75;;;8.08;90.03
70314;BME280;71040;47.526;18.986;2024-01-06T09:48:40;98744.66;;;8.07;89.95
70314;BME280;71040;47.526;18.986;2024-01-06T09:54:04;98741.94;;;8.08;90.23
70314;BME280;71040;47.526;18.986;2024-01-06T09:59:07;98739.50;;;8.05;90.37
70314;BME280;71040;47.526;18.986;2024-01-06T10:04:10;98742.03;;;8.07;90.16
70314;BME280;71040;47.526;18.986;2024-01-06T10:09:12;98744.66;;;8.07;90.52
70314;BME280;71040;47.526;18.986;2024-01-06T10:14:14;98742.03;;;8.07;90.43
70314;BME280;71040;47.526;18.986;2024-01-06T10:19:15;98749.09;;;8.05;90.39
70314;BME280;71040;47.526;18.986;2024-01-06T10:24:21;98747.25;;;8.07;90.38
70314;BME280;71040;47.526;18.986;2024-01-06T10:29:21;98738.66;;;8.05;90.33
70314;BME280;71040;47.526;18.986;2024-01-06T10:34:24;98730.78;;;8.06;90.53
70314;BME280;71040;47.526;18.986;2024-01-06T10:39:25;98717.84;;;8.05;90.63
70314;BME280;71040;47.526;18.986;2024-01-06T10:44:27;98720.28;;;8.08;90.24
70314;BME280;71040;47.526;18.986;2024-01-06T10:49:30;98709.19;;;8.04;90.44
70314;BME280;71040;47.526;18.986;2024-01-06T10:54:31;98709.97;;;8.06;90.50
70314;BME280;71040;47.526;18.986;2024-01-06T10:59:34;98698.63;;;8.07;90.61
70314;BME280;71040;47.526;18.986;2024-01-06T11:04:37;98695.19;;;8.07;90.53
70314;BME280;71040;47.526;18.986;2024-01-06T11:09:39;98669.16;;;8.07;90.67
70314;BME280;71040;47.526;18.986;2024-01-06T11:14:40;98666.56;;;8.07;90.73
70314;BME280;71040;47.526;18.986;2024-01-06T11:19:44;98644.97;;;8.05;90.84
70314;BME280;71040;47.526;18.986;2024-01-06T11:24:51;98652.59;;;8.08;90.86
70314;BME280;71040;47.526;18.986;2024-01-06T11:29:55;98631.88;;;8.06;90.81
70314;BME280;71040;47.526;18.986;2024-01-06T11:35:15;98621.38;;;8.08;90.90
70314;BME280;71040;47.526;18.986;2024-01-06T11:45:27;98604.94;;;8.07;90.93
70314;BME280;71040;47.526;18.986;2024-01-06T11:50:32;98603.97;;;8.08;90.98
70314;BME280;71040;47.526;18.986;2024-01-06T11:55:35;98591.91;;;8.07;91.26
70314;BME280;71040;47.526;18.986;2024-01-06T12:00:35;98583.41;;;8.04;91.29
70314;BME280;71040;47.526;18.986;2024-01-06T12:05:44;98587.53;;;8.08;91.21
70314;BME280;71040;47.526;18.986;2024-01-06T12:10:47;98587.53;;;8.08;91.06
70314;BME280;71040;47.526;18.986;2024-01-06T12:15:48;98592.72;;;8.08;91.17
70314;BME280;71040;47.526;18.986;2024-01-06T12:20:52;98597.94;;;8.08;91.30
70314;BME280;71040;47.526;18.986;2024-01-06T12:25:56;98590.13;;;8.08;91.35
70314;BME280;71040;47.526;18.986;2024-01-06T12:30:56;98580.56;;;8.08;91.40
70314;BME280;71040;47.526;18.986;2024-01-06T12:35:56;98578.78;;;8.09;91.26
70314;BME280;71040;47.526;18.986;2024-01-06T12:40:57;98571.09;;;8.07;91.56
70314;BME280;71040;47.526;18.986;2024-01-06T12:45:57;98578.78;;;8.09;91.42
70314;BME280;71040;47.526;18.986;2024-01-06T12:50:58;98572.00;;;8.06;91.48
70314;BME280;71040;47.526;18.986;2024-01-06T12:55:58;98592.66;;;8.09;91.56
70314;BME280;71040;47.526;18.986;2024-01-06T13:01:01;98584.00;;;8.09;91.52
70314;BME280;71040;47.526;18.986;2024-01-06T13:06:03;98600.47;;;8.09;91.78
70314;BME280;71040;47.526;18.986;2024-01-06T13:11:03;98603.91;;;8.10;91.56
70314;BME280;71040;47.526;18.986;2024-01-06T13:16:04;98588.28;;;8.10;91.59
70314;BME280;71040;47.526;18.986;2024-01-06T13:21:07;98594.41;;;8.09;91.74
70314;BME280;71040;47.526;18.986;2024-01-06T13:26:08;98592.66;;;8.09;91.71
70314;BME280;71040;47.526;18.986;2024-01-06T13:31:08;98602.16;;;8.10;91.69
70314;BME280;71040;47.526;18.986;2024-01-06T13:36:09;98590.97;;;8.08;91.57
70314;BME280;71040;47.526;18.986;2024-01-06T13:41:10;98591.66;;;8.12;91.79
70314;BME280;71040;47.526;18.986;2024-01-06T13:46:17;98590.81;;;8.11;91.72
70314;BME280;71040;47.526;18.986;2024-01-06T13:51:17;98587.38;;;8.11;91.86
70314;BME280;71040;47.526;18.986;2024-01-06T13:56:21;98580.41;;;8.11;91.92
70314;BME280;71040;47.526;18.986;2024-01-06T14:01:24;98570.84;;;8.12;91.93
70314;BME280;71040;47.526;18.986;2024-01-06T14:06:25;98583.84;;;8.12;91.96
70314;BME280;71040;47.526;18.986;2024-01-06T14:11:31;98576.13;;;8.10;91.98
70314;BME280;71040;47.526;18.986;2024-01-06T14:16:34;98570.84;;;8.12;92.16
70314;BME280;71040;47.526;18.986;2024-01-06T14:21:35;98556.97;;;8.11;91.81
70314;BME280;71040;47.526;18.986;2024-01-06T14:26:35;98565.63;;;8.12;91.79
70314;BME280;71040;47.526;18.986;2024-01-06T14:31:36;98567.31;;;8.13;92.08
70314;BME280;71040;47.526;18.986;2024-01-06T14:36:36;98576.88;;;8.12;92.04
70314;BME280;71040;47.526;18.986;2024-01-06T14:41:47;98585.53;;;8.13;92.07
70314;BME280;71040;47.526;18.986;2024-01-06T14:46:48;98580.31;;;8.13;92.02
70314;BME280;71040;47.526;18.986;2024-01-06T14:51:50;98587.28;;;8.12;91.88
70314;BME280;71040;47.526;18.986;2024-01-06T14:56:50;98587.22;;;8.14;92.18
70314;BME280;71040;47.526;18.986;2024-01-06T15:01:56;98584.69;;;8.12;92.01
70314;BME280;71040;47.526;18.986;2024-01-06T15:06:56;98576.81;;;8.14;92.10
70314;BME280;71040;47.526;18.986;2024-01-06T15:11:59;98582.00;;;8.14;92.14
70314;BME280;71040;47.526;18.986;2024-01-06T15:17:00;98576.81;;;8.14;91.98
70314;BME280;71040;47.526;18.986;2024-01-06T15:22:05;98566.38;;;8.14;91.99
70314;BME280;71040;47.526;18.986;2024-01-06T15:27:05;98561.19;;;8.14;92.03
70314;BME280;71040;47.526;18.986;2024-01-06T15:32:06;98552.53;;;8.13;92.25
70314;BME280;71040;47.526;18.986;2024-01-06T15:37:07;98556.81;;;8.14;92.23
70314;BME280;71040;47.526;18.986;2024-01-06T15:42:08;98557.66;;;8.15;92.09
70314;BME280;71040;47.526;18.986;2024-01-06T15:47:13;98552.44;;;8.15;92.11
70314;BME280;71040;47.526;18.986;2024-01-06T15:52:15;98555.06;;;8.15;92.25
70314;BME280;71040;47.526;18.986;2024-01-06T15:57:26;98545.50;;;8.15;92.07
70314;BME280;71040;47.526;18.986;2024-01-06T16:02:28;98546.41;;;8.14;92.29
70314;BME280;71040;47.526;18.986;2024-01-06T16:07:28;98542.88;;;8.15;92.25
70314;BME280;71040;47.526;18.986;2024-01-06T16:12:29;98541.13;;;8.16;92.17
70314;BME280;71040;47.526;18.986;2024-01-06T16:17:31;98542.88;;;8.15;92.13
70314;BME280;71040;47.526;18.986;2024-01-06T16:22:33;98543.72;;;8.16;92.13
70314;BME280;71040;47.526;18.986;2024-01-06T16:27:39;98540.28;;;8.15;92.19
70314;BME280;71040;47.526;18.986;2024-01-06T16:32:39;98531.72;;;8.13;92.25
70314;BME280;71040;47.526;18.986;2024-01-06T16:37:42;98533.31;;;8.16;92.14
70314;BME280;71040;47.526;18.986;2024-01-06T16:42:45;98528.09;;;8.16;92.23
70314;BME280;71040;47.526;18.986;2024-01-06T16:47:45;98527.25;;;8.15;92.46
70314;BME280;71040;47.526;18.986;2024-01-06T16:52:48;98530.78;;;8.14;92.11
70314;BME280;71040;47.526;18.986;2024-01-06T16:57:49;98524.66;;;8.15;92.40
70314;BME280;71040;47.526;18.986;2024-01-06T17:02:49;98531.56;;;8.16;92.27
70314;BME280;71040;47.526;18.986;2024-01-06T17:07:50;98530.72;;;8.16;92.16
70314;BME280;71040;47.526;18.986;2024-01-06T17:12:50;98529.88;;;8.15;92.22
70314;BME280;71040;47.526;18.986;2024-01-06T17:17:50;98541.03;;;8.17;92.28
70314;BME280;71040;47.526;18.986;2024-01-06T17:22:51;98540.19;;;8.17;92.35
70314;BME280;71040;47.526;18.986;2024-01-06T17:27:51;98537.75;;;8.14;92.38
70314;BME280;71040;47.526;18.986;2024-01-06T17:32:52;98535.00;;;8.17;92.31
70314;BME280;71040;47.526;18.986;2024-01-06T17:37:53;98534.16;;;8.16;92.18
70314;BME280;71040;47.526;18.986;2024-01-06T17:42:53;98536.75;;;8.16;92.23
70314;BME280;71040;47.526;18.986;2024-01-06T17:47:58;98533.31;;;8.16;92.37
70314;BME280;71040;47.526;18.986;2024-01-06T17:52:59;98535.84;;;8.17;92.12
70314;BME280;71040;47.526;18.986;2024-01-06T17:57:59;98531.63;;;8.15;92.27
70314;BME280;71040;47.526;18.986;2024-01-06T18:03:03;98529.03;;;8.15;92.07
70314;BME280;71040;47.526;18.986;2024-01-06T18:08:04;98534.91;;;8.18;92.33
70314;BME280;71040;47.526;18.986;2024-01-06T18:13:04;98523.66;;;8.18;92.46
70314;BME280;71040;47.526;18.986;2024-01-06T18:18:08;98522.81;;;8.17;92.31
70314;BME280;71040;47.526;18.986;2024-01-06T18:23:10;98525.34;;;8.19;92.31
70314;BME280;71040;47.526;18.986;2024-01-06T18:28:13;98522.75;;;8.19;92.41
70314;BME280;71040;47.526;18.986;2024-01-06T18:33:16;98520.22;;;8.17;92.61
70314;BME280;71040;47.526;18.986;2024-01-06T18:38:21;98519.38;;;8.17;92.52
70314;BME280;71040;47.526;18.986;2024-01-06T18:43:24;98521.06;;;8.18;92.65
70314;BME280;71040;47.526;18.986;2024-01-06T18:48:24;98514.16;;;8.17;92.55
70314;BME280;71040;47.526;18.986;2024-01-06T18:53:27;98515.75;;;8.19;92.78
70314;BME280;71040;47.526;18.986;2024-01-06T18:58:32;98491.91;;;8.11;92.45
70314;BME280;71040;47.526;18.986;2024-01-06T19:03:35;98511.38;;;8.20;92.52
70314;BME280;71040;47.526;18.986;2024-01-06T19:08:35;98500.97;;;8.20;92.59
70314;BME280;71040;47.526;18.986;2024-01-06T19:13:38;98497.63;;;8.18;92.42
70314;BME280;71040;47.526;18.986;2024-01-06T19:18:41;98497.50;;;8.19;92.52
70314;BME280;71040;47.526;18.986;2024-01-06T19:23:46;98493.34;;;8.17;92.72
70314;BME280;71040;47.526;18.986;2024-01-06T19:28:47;98498.34;;;8.20;92.67
70314;BME280;71040;47.526;18.986;2024-01-06T19:33:47;98483.56;;;8.20;92.62
70314;BME280;71040;47.526;18.986;2024-01-06T19:38:50;98489.72;;;8.19;92.67
70314;BME280;71040;47.526;18.986;2024-01-06T19:43:50;98487.94;;;8.20;92.86
70314;BME280;71040;47.526;18.986;2024-01-06T19:48:56;98488.78;;;8.20;92.66
70314;BME280;71040;47.526;18.986;2024-01-06T19:53:58;98492.22;;;8.21;92.59
70314;BME280;71040;47.526;18.986;2024-01-06T19:58:59;98484.41;;;8.21;92.62
70314;BME280;71040;47.526;18.986;2024-01-06T20:04:02;98484.41;;;8.21;92.74
70314;BME280;71040;47.526;18.986;2024-01-06T20:09:04;98483.56;;;8.20;92.65
70314;BME280;71040;47.526;18.986;2024-01-06T20:14:09;98492.22;;;8.21;92.70
70314;BME280;71040;47.526;18.986;2024-01-06T20:19:09;98477.53;;;8.20;92.74
70314;BME280;71040;47.526;18.986;2024-01-06T20:24:12;98472.31;;;8.20;92.67
70314;BME280;71040;47.526;18.986;2024-01-06T20:29:14;98477.44;;;8.21;92.80
70314;BME280;71040;47.526;18.986;2024-01-06T20:34:15;98468.78;;;8.21;92.62
70314;BME280;71040;47.526;18.986;2024-01-06T20:39:20;98463.59;;;8.21;92.70
70314;BME280;71040;47.526;18.986;2024-01-06T20:44:20;98463.59;;;8.21;92.71
70314;BME280;71040;47.526;18.986;2024-01-06T20:49:21;98454.03;;;8.21;92.74
70314;BME280;71040;47.526;18.986;2024-01-06T20:54:23;98455.78;;;8.21;92.74
70314;BME280;71040;47.526;18.986;2024-01-06T20:59:24;98457.47;;;8.22;92.58
70314;BME280;71040;47.526;18.986;2024-01-06T21:04:26;98452.25;;;8.22;92.78
70314;BME280;71040;47.526;18.986;2024-01-06T21:09:27;98454.84;;;8.22;92.64
70314;BME280;71040;47.526;18.986;2024-01-06T21:14:27;98449.66;;;8.22;92.92
70314;BME280;71040;47.526;18.986;2024-01-06T21:19:27;98448.72;;;8.23;92.69
70314;BME280;71040;47.526;18.986;2024-01-06T21:24:31;98442.69;;;8.22;92.76
70314;BME280;71040;47.526;18.986;2024-01-06T21:29:31;98436.63;;;8.22;92.74
70314;BME280;71040;47.526;18.986;2024-01-06T21:34:31;98437.47;;;8.22;92.79
70314;BME280;71040;47.526;18.986;2024-01-06T21:39:34;98433.09;;;8.23;92.82
70314;BME280;71040;47.526;18.986;2024-01-06T21:44:37;98433.09;;;8.23;92.92
70314;BME280;71040;47.526;18.986;2024-01-06T21:49:37;98427.06;;;8.22;92.80
70314;BME280;71040;47.526;18.986;2024-01-06T21:54:38;98421.84;;;8.22;92.79
70314;BME280;71040;47.526;18.986;2024-01-06T21:59:39;98423.63;;;8.22;92.99
70314;BME280;71040;47.526;18.986;2024-01-06T22:04:40;98412.28;;;8.23;92.82
70314;BME280;71040;47.526;18.986;2024-01-06T22:09:41;98407.25;;;8.20;92.91
70314;BME280;71040;47.526;18.986;2024-01-06T22:14:42;98413.13;;;8.23;92.89
70314;BME280;71040;47.526;18.986;2024-01-06T22:19:43;98408.84;;;8.22;92.79
70314;BME280;71040;47.526;18.986;2024-01-06T22:24:44;98412.28;;;8.23;92.84
70314;BME280;71040;47.526;18.986;2024-01-06T22:29:48;98414.88;;;8.23;92.82
70314;BME280;71040;47.526;18.986;2024-01-06T22:34:48;98413.97;;;8.24;92.79
70314;BME280;71040;47.526;18.986;2024-01-06T22:39:49;98410.53;;;8.23;93.04
70314;BME280;71040;47.526;18.986;2024-01-06T22:44:49;98405.31;;;8.23;92.78
70314;BME280;71040;47.526;18.986;2024-01-06T22:49:49;98400.09;;;8.23;92.92
70314;BME280;71040;47.526;18.986;2024-01-06T22:54:50;98409.69;;;8.23;92.64
70314;BME280;71040;47.526;18.986;2024-01-06T22:59:53;98401.13;;;8.21;92.61
70314;BME280;71040;47.526;18.986;2024-01-06T23:04:55;98403.56;;;8.24;92.98
70314;BME280;71040;47.526;18.986;2024-01-06T23:10:00;98407.91;;;8.23;92.81
70314;BME280;71040;47.526;18.986;2024-01-06T23:15:05;98404.47;;;8.23;92.55
70314;BME280;71040;47.526;18.986;2024-01-06T23:20:09;98400.09;;;8.23;93.00
70314;BME280;71040;47.526;18.986;2024-01-06T23:25:12;98393.13;;;8.24;92.68
70314;BME280;71040;47.526;18.986;2024-01-06T23:30:13;98393.22;;;8.22;92.84
70314;BME280;71040;47.526;18.986;2024-01-06T23:35:13;98391.47;;;8.23;92.93
70314;BME280;71040;47.526;18.986;2024-01-06T23:40:14;98399.19;;;8.24;92.88
70314;BME280;71040;47.526;18.986;2024-01-06T23:45:14;98409.69;;;8.23;92.82
70314;BME280;71040;47.526;18.986;2024-01-06T23:50:14;98402.63;;;8.25;92.80
70314;BME280;71040;47.526;18.986;2024-01-06T23:55:20;98398.25;;;8.25;92.95
